sensor_id;sensor_type;location;lat;lon;timestamp;temperature;humidity
78904;DHT22;68291;49.602;8.722;2023-07-20T00:02:05;22.80;72.50
78904;DHT22;68291;49.602;8.722;2023-07-20T00:04:37;22.80;72.90
78904;DHT22;68291;49.602;8.722;2023-07-20T00:07:16;22.80;73.10
78904;DHT22;68291;49.602;8.722;2023-07-20T00:09:53;22.80;73.10
78904;DHT22;68291;49.602;8.722;2023-07-20T00:12:36;22.70;73.60
78904;DHT22;68291;49.602;8.722;2023-07-20T00:15:11;22.70;73.30
78904;DHT22;68291;49.602;8.722;2023-07-20T00:17:50;22.70;73.50
78904;DHT22;68291;49.602;8.722;2023-07-20T00:20:28;22.70;73.30
78904;DHT22;68291;49.602;8.722;2023-07-20T00:23:23;22.60;73.50
78904;DHT22;68291;49.602;8.722;2023-07-20T00:26:24;22.60;73.50
78904;DHT22;68291;49.602;8.722;2023-07-20T00:29:15;22.60;73.70
78904;DHT22;68291;49.602;8.722;2023-07-20T00:31:59;22.60;73.70
78904;DHT22;68291;49.602;8.722;2023-07-20T00:34:57;22.50;74.00
78904;DHT22;68291;49.602;8.722;2023-07-20T00:37:31;22.50;74.10
78904;DHT22;68291;49.602;8.722;2023-07-20T00:40:13;22.50;74.30
78904;DHT22;68291;49.602;8.722;2023-07-20T00:42:48;22.50;74.40
78904;DHT22;68291;49.602;8.722;2023-07-20T00:45:25;22.50;74.30
78904;DHT22;68291;49.602;8.722;2023-07-20T00:48:01;22.50;74.20
78904;DHT22;68291;49.602;8.722;2023-07-20T00:50:58;22.40;74.10
78904;DHT22;68291;49.602;8.722;2023-07-20T00:53:49;22.40;74.10
78904;DHT22;68291;49.602;8.722;2023-07-20T00:56:46;22.30;73.90
78904;DHT22;68291;49.602;8.722;2023-07-20T00:59:38;22.30;74.00
78904;DHT22;68291;49.602;8.722;2023-07-20T01:02:13;22.30;74.70
78904;DHT22;68291;49.602;8.722;2023-07-20T01:04:47;22.30;74.30
78904;DHT22;68291;49.602;8.722;2023-07-20T01:07:36;22.30;74.50
78904;DHT22;68291;49.602;8.722;2023-07-20T01:10:14;22.20;74.70
78904;DHT22;68291;49.602;8.722;2023-07-20T01:12:53;22.20;75.00
78904;DHT22;68291;49.602;8.722;2023-07-20T01:15:49;22.20;74.70
78904;DHT22;68291;49.602;8.722;2023-07-20T01:18:22;22.20;75.60
78904;DHT22;68291;49.602;8.722;2023-07-20T01:21:33;22.10;75.00
78904;DHT22;68291;49.602;8.722;2023-07-20T01:24:39;22.00;75.80
78904;DHT22;68291;49.602;8.722;2023-07-20T01:28:16;22.00;76.20
78904;DHT22;68291;49.602;8.722;2023-07-20T01:31:21;21.90;75.80
78904;DHT22;68291;49.602;8.722;2023-07-20T01:33:57;21.80;76.20
78904;DHT22;68291;49.602;8.722;2023-07-20T01:36:42;21.60;76.10
78904;DHT22;68291;49.602;8.722;2023-07-20T01:39:40;21.60;76.90
78904;DHT22;68291;49.602;8.722;2023-07-20T01:42:27;21.50;77.00
78904;DHT22;68291;49.602;8.722;2023-07-20T01:44:59;21.30;76.90
78904;DHT22;68291;49.602;8.722;2023-07-20T01:47:55;21.20;77.20
78904;DHT22;68291;49.602;8.722;2023-07-20T01:50:32;21.00;77.80
78904;DHT22;68291;49.602;8.722;2023-07-20T01:53:34;20.90;77.80
78904;DHT22;68291;49.602;8.722;2023-07-20T01:56:08;20.80;78.20
78904;DHT22;68291;49.602;8.722;2023-07-20T01:58:40;20.60;78.50
78904;DHT22;68291;49.602;8.722;2023-07-20T02:01:24;20.50;78.80
78904;DHT22;68291;49.602;8.722;2023-07-20T02:04:28;20.40;79.30
78904;DHT22;68291;49.602;8.722;2023-07-20T02:07:03;20.30;80.50
78904;DHT22;68291;49.602;8.722;2023-07-20T02:09:53;20.20;80.10
78904;DHT22;68291;49.602;8.722;2023-07-20T02:12:47;20.10;80.10
78904;DHT22;68291;49.602;8.722;2023-07-20T02:15:34;19.90;80.60
78904;DHT22;68291;49.602;8.722;2023-07-20T02:18:15;19.80;80.90
78904;DHT22;68291;49.602;8.722;2023-07-20T02:20:57;19.70;81.30
78904;DHT22;68291;49.602;8.722;2023-07-20T02:23:39;19.60;82.00
78904;DHT22;68291;49.602;8.722;2023-07-20T02:26:25;19.50;81.80
78904;DHT22;68291;49.602;8.722;2023-07-20T02:28:58;19.40;82.20
78904;DHT22;68291;49.602;8.722;2023-07-20T02:31:35;19.30;82.60
78904;DHT22;68291;49.602;8.722;2023-07-20T02:34:07;19.20;83.20
78904;DHT22;68291;49.602;8.722;2023-07-20T02:37:12;19.10;83.10
78904;DHT22;68291;49.602;8.722;2023-07-20T02:39:44;19.10;85.00
78904;DHT22;68291;49.602;8.722;2023-07-20T02:42:29;19.00;84.10
78904;DHT22;68291;49.602;8.722;2023-07-20T02:45:21;18.90;84.10
78904;DHT22;68291;49.602;8.722;2023-07-20T02:48:11;18.80;84.50
78904;DHT22;68291;49.602;8.722;2023-07-20T02:51:07;18.70;84.70
78904;DHT22;68291;49.602;8.722;2023-07-20T02:54:00;18.70;85.00
78904;DHT22;68291;49.602;8.722;2023-07-20T02:56:55;18.60;85.20
78904;DHT22;68291;49.602;8.722;2023-07-20T02:59:39;18.60;85.40
78904;DHT22;68291;49.602;8.722;2023-07-20T03:02:17;18.50;85.60
78904;DHT22;68291;49.602;8.722;2023-07-20T03:04:51;18.50;86.10
78904;DHT22;68291;49.602;8.722;2023-07-20T03:07:31;18.50;86.10
78904;DHT22;68291;49.602;8.722;2023-07-20T03:10:30;18.40;86.60
78904;DHT22;68291;49.602;8.722;2023-07-20T03:13:25;18.40;87.70
78904;DHT22;68291;49.602;8.722;2023-07-20T03:16:25;18.30;86.70
78904;DHT22;68291;49.602;8.722;2023-07-20T03:19:21;18.20;87.00
78904;DHT22;68291;49.602;8.722;2023-07-20T03:22:06;18.10;87.10
78904;DHT22;68291;49.602;8.722;2023-07-20T03:24:40;18.00;87.70
78904;DHT22;68291;49.602;8.722;2023-07-20T03:27:16;18.00;88.10
78904;DHT22;68291;49.602;8.722;2023-07-20T03:30:03;17.90;89.30
78904;DHT22;68291;49.602;8.722;2023-07-20T03:32:36;17.80;88.80
78904;DHT22;68291;49.602;8.722;2023-07-20T03:35:22;17.80;89.20
78904;DHT22;68291;49.602;8.722;2023-07-20T03:37:54;17.70;89.30
78904;DHT22;68291;49.602;8.722;2023-07-20T03:40:51;17.70;89.70
78904;DHT22;68291;49.602;8.722;2023-07-20T03:43:53;17.60;90.30
78904;DHT22;68291;49.602;8.722;2023-07-20T03:46:45;17.60;90.80
78904;DHT22;68291;49.602;8.722;2023-07-20T03:49:22;17.50;90.10
78904;DHT22;68291;49.602;8.722;2023-07-20T03:52:17;17.40;90.40
78904;DHT22;68291;49.602;8.722;2023-07-20T03:55:03;17.40;90.70
78904;DHT22;68291;49.602;8.722;2023-07-20T03:57:42;17.30;90.80
78904;DHT22;68291;49.602;8.722;2023-07-20T04:00:19;17.30;91.10
78904;DHT22;68291;49.602;8.722;2023-07-20T04:02:59;17.20;91.50
78904;DHT22;68291;49.602;8.722;2023-07-20T04:05:34;17.20;91.50
78904;DHT22;68291;49.602;8.722;2023-07-20T04:08:05;17.20;91.70
78904;DHT22;68291;49.602;8.722;2023-07-20T04:10:37;17.20;91.80
78904;DHT22;68291;49.602;8.722;2023-07-20T04:13:17;17.20;92.20
78904;DHT22;68291;49.602;8.722;2023-07-20T04:16:48;17.20;92.30
78904;DHT22;68291;49.602;8.722;2023-07-20T04:19:26;17.30;93.10
78904;DHT22;68291;49.602;8.722;2023-07-20T04:22:07;17.30;92.50
78904;DHT22;68291;49.602;8.722;2023-07-20T04:24:56;17.30;92.80
78904;DHT22;68291;49.602;8.722;2023-07-20T04:27:41;17.30;93.00
78904;DHT22;68291;49.602;8.722;2023-07-20T04:30:12;17.40;93.10
78904;DHT22;68291;49.602;8.722;2023-07-20T04:33:04;17.30;93.40
78904;DHT22;68291;49.602;8.722;2023-07-20T04:35:47;17.40;94.10
78904;DHT22;68291;49.602;8.722;2023-07-20T04:38:25;17.40;94.40
78904;DHT22;68291;49.602;8.722;2023-07-20T04:41:11;17.40;94.10
78904;DHT22;68291;49.602;8.722;2023-07-20T04:44:03;17.40;94.00
78904;DHT22;68291;49.602;8.722;2023-07-20T04:46:37;17.40;94.20
78904;DHT22;68291;49.602;8.722;2023-07-20T04:49:19;17.50;94.60
78904;DHT22;68291;49.602;8.722;2023-07-20T04:51:54;17.60;95.10
78904;DHT22;68291;49.602;8.722;2023-07-20T04:54:48;17.60;95.60
78904;DHT22;68291;49.602;8.722;2023-07-20T04:57:47;17.80;95.60
78904;DHT22;68291;49.602;8.722;2023-07-20T05:00:34;17.90;96.00
78904;DHT22;68291;49.602;8.722;2023-07-20T05:03:17;18.10;96.40
78904;DHT22;68291;49.602;8.722;2023-07-20T05:05:52;18.20;96.30
78904;DHT22;68291;49.602;8.722;2023-07-20T05:08:36;18.40;96.60
78904;DHT22;68291;49.602;8.722;2023-07-20T05:11:14;18.60;96.40
78904;DHT22;68291;49.602;8.722;2023-07-20T05:14:05;18.70;96.80
78904;DHT22;68291;49.602;8.722;2023-07-20T05:16:55;18.90;96.90
78904;DHT22;68291;49.602;8.722;2023-07-20T05:19:36;19.10;96.80
78904;DHT22;68291;49.602;8.722;2023-07-20T05:22:31;19.30;96.50
78904;DHT22;68291;49.602;8.722;2023-07-20T05:25:25;19.40;96.60
78904;DHT22;68291;49.602;8.722;2023-07-20T05:28:02;19.60;96.00
78904;DHT22;68291;49.602;8.722;2023-07-20T05:30:52;19.80;96.00
78904;DHT22;68291;49.602;8.722;2023-07-20T05:33:39;19.90;95.70
78904;DHT22;68291;49.602;8.722;2023-07-20T05:36:30;20.10;95.50
78904;DHT22;68291;49.602;8.722;2023-07-20T05:39:23;20.20;95.50
78904;DHT22;68291;49.602;8.722;2023-07-20T05:41:56;20.30;95.00
78904;DHT22;68291;49.602;8.722;2023-07-20T05:44:53;20.50;94.80
78904;DHT22;68291;49.602;8.722;2023-07-20T05:47:43;20.60;94.90
78904;DHT22;68291;49.602;8.722;2023-07-20T05:50:31;20.60;94.80
78904;DHT22;68291;49.602;8.722;2023-07-20T05:53:12;20.80;94.90
78904;DHT22;68291;49.602;8.722;2023-07-20T05:55:52;20.90;94.70
78904;DHT22;68291;49.602;8.722;2023-07-20T05:58:25;21.00;94.70
78904;DHT22;68291;49.602;8.722;2023-07-20T06:01:11;21.10;94.50
78904;DHT22;68291;49.602;8.722;2023-07-20T06:03:45;21.10;94.50
78904;DHT22;68291;49.602;8.722;2023-07-20T06:06:24;21.20;94.50
78904;DHT22;68291;49.602;8.722;2023-07-20T06:08:57;21.40;94.40
78904;DHT22;68291;49.602;8.722;2023-07-20T06:11:40;21.50;94.20
78904;DHT22;68291;49.602;8.722;2023-07-20T06:14:12;21.60;94.20
78904;DHT22;68291;49.602;8.722;2023-07-20T06:16:46;21.70;93.90
78904;DHT22;68291;49.602;8.722;2023-07-20T06:19:21;21.80;93.70
78904;DHT22;68291;49.602;8.722;2023-07-20T06:21:53;21.90;93.40
78904;DHT22;68291;49.602;8.722;2023-07-20T06:24:30;21.90;93.40
78904;DHT22;68291;49.602;8.722;2023-07-20T06:27:18;22.00;93.10
78904;DHT22;68291;49.602;8.722;2023-07-20T06:29:57;22.00;92.90
78904;DHT22;68291;49.602;8.722;2023-07-20T06:32:38;22.00;92.80
78904;DHT22;68291;49.602;8.722;2023-07-20T06:35:18;22.00;92.80
78904;DHT22;68291;49.602;8.722;2023-07-20T06:37:59;22.00;92.60
78904;DHT22;68291;49.602;8.722;2023-07-20T06:40:40;22.00;92.40
78904;DHT22;68291;49.602;8.722;2023-07-20T06:43:16;22.00;92.40
78904;DHT22;68291;49.602;8.722;2023-07-20T06:46:09;22.00;92.30
78904;DHT22;68291;49.602;8.722;2023-07-20T06:48:41;22.10;92.50
78904;DHT22;68291;49.602;8.722;2023-07-20T06:51:20;22.10;92.40
78904;DHT22;68291;49.602;8.722;2023-07-20T06:53:53;22.20;92.40
78904;DHT22;68291;49.602;8.722;2023-07-20T06:56:27;22.20;92.40
78904;DHT22;68291;49.602;8.722;2023-07-20T06:59:12;22.30;92.30
78904;DHT22;68291;49.602;8.722;2023-07-20T07:02:11;22.40;92.20
78904;DHT22;68291;49.602;8.722;2023-07-20T07:04:42;22.50;92.20
78904;DHT22;68291;49.602;8.722;2023-07-20T07:07:14;22.50;92.20
78904;DHT22;68291;49.602;8.722;2023-07-20T07:09:57;22.50;92.30
78904;DHT22;68291;49.602;8.722;2023-07-20T07:12:40;22.60;92.00
78904;DHT22;68291;49.602;8.722;2023-07-20T07:15:13;22.60;91.60
78904;DHT22;68291;49.602;8.722;2023-07-20T07:17:45;22.60;91.70
78904;DHT22;68291;49.602;8.722;2023-07-20T07:20:17;22.60;91.50
78904;DHT22;68291;49.602;8.722;2023-07-20T07:22:52;22.60;91.20
78904;DHT22;68291;49.602;8.722;2023-07-20T07:25:31;22.60;91.20
78904;DHT22;68291;49.602;8.722;2023-07-20T07:28:06;22.60;91.30
78904;DHT22;68291;49.602;8.722;2023-07-20T07:30:40;22.60;91.40
78904;DHT22;68291;49.602;8.722;2023-07-20T07:33:15;22.60;91.20
78904;DHT22;68291;49.602;8.722;2023-07-20T07:35:46;22.60;91.00
78904;DHT22;68291;49.602;8.722;2023-07-20T07:38:23;22.60;91.00
78904;DHT22;68291;49.602;8.722;2023-07-20T07:41:02;22.50;91.00
78904;DHT22;68291;49.602;8.722;2023-07-20T07:43:34;22.60;91.20
78904;DHT22;68291;49.602;8.722;2023-07-20T07:46:14;22.60;91.10
78904;DHT22;68291;49.602;8.722;2023-07-20T07:48:51;22.60;91.10
78904;DHT22;68291;49.602;8.722;2023-07-20T07:51:34;22.70;90.80
78904;DHT22;68291;49.602;8.722;2023-07-20T07:54:12;22.70;90.60
78904;DHT22;68291;49.602;8.722;2023-07-20T07:57:08;22.70;90.90
78904;DHT22;68291;49.602;8.722;2023-07-20T08:00:02;22.80;91.10
78904;DHT22;68291;49.602;8.722;2023-07-20T08:02:47;22.90;90.60
78904;DHT22;68291;49.602;8.722;2023-07-20T08:05:25;22.90;90.70
78904;DHT22;68291;49.602;8.722;2023-07-20T08:08:06;23.00;90.80
78904;DHT22;68291;49.602;8.722;2023-07-20T08:10:55;23.00;90.70
78904;DHT22;68291;49.602;8.722;2023-07-20T08:13:27;23.20;90.50
78904;DHT22;68291;49.602;8.722;2023-07-20T08:15:58;23.20;90.20
78904;DHT22;68291;49.602;8.722;2023-07-20T08:19:19;23.30;90.20
78904;DHT22;68291;49.602;8.722;2023-07-20T08:22:10;23.30;90.10
78904;DHT22;68291;49.602;8.722;2023-07-20T08:24:41;23.40;90.10
78904;DHT22;68291;49.602;8.722;2023-07-20T08:27:31;23.40;90.20
78904;DHT22;68291;49.602;8.722;2023-07-20T08:30:22;23.50;90.10
78904;DHT22;68291;49.602;8.722;2023-07-20T08:33:00;23.60;89.90
78904;DHT22;68291;49.602;8.722;2023-07-20T08:35:42;23.70;89.20
78904;DHT22;68291;49.602;8.722;2023-07-20T08:38:14;23.70;89.00
78904;DHT22;68291;49.602;8.722;2023-07-20T08:40:57;23.70;89.00
78904;DHT22;68291;49.602;8.722;2023-07-20T08:44:06;23.70;88.70
78904;DHT22;68291;49.602;8.722;2023-07-20T08:46:52;23.80;88.20
78904;DHT22;68291;49.602;8.722;2023-07-20T08:49:29;23.80;86.30
78904;DHT22;68291;49.602;8.722;2023-07-20T08:52:22;23.80;87.30
78904;DHT22;68291;49.602;8.722;2023-07-20T08:55:06;23.80;86.20
78904;DHT22;68291;49.602;8.722;2023-07-20T08:57:46;23.90;86.30
78904;DHT22;68291;49.602;8.722;2023-07-20T09:00:41;24.00;85.80
78904;DHT22;68291;49.602;8.722;2023-07-20T09:03:23;24.00;85.80
78904;DHT22;68291;49.602;8.722;2023-07-20T09:06:04;24.10;85.40
78904;DHT22;68291;49.602;8.722;2023-07-20T09:12:14;24.10;85.20
78904;DHT22;68291;49.602;8.722;2023-07-20T09:14:57;24.10;85.90
78904;DHT22;68291;49.602;8.722;2023-07-20T09:17:35;24.10;85.30
78904;DHT22;68291;49.602;8.722;2023-07-20T09:20:09;24.20;86.30
78904;DHT22;68291;49.602;8.722;2023-07-20T09:22:42;24.20;85.10
78904;DHT22;68291;49.602;8.722;2023-07-20T09:25:38;24.20;85.10
78904;DHT22;68291;49.602;8.722;2023-07-20T09:28:30;24.30;84.20
78904;DHT22;68291;49.602;8.722;2023-07-20T09:31:23;24.30;83.60
78904;DHT22;68291;49.602;8.722;2023-07-20T09:34:12;24.40;82.80
78904;DHT22;68291;49.602;8.722;2023-07-20T09:37:03;24.50;82.10
78904;DHT22;68291;49.602;8.722;2023-07-20T09:40:07;24.70;82.60
78904;DHT22;68291;49.602;8.722;2023-07-20T09:43:18;24.80;83.50
78904;DHT22;68291;49.602;8.722;2023-07-20T09:45:58;25.00;80.10
78904;DHT22;68291;49.602;8.722;2023-07-20T09:48:32;25.10;80.80
78904;DHT22;68291;49.602;8.722;2023-07-20T09:51:23;25.20;79.80
78904;DHT22;68291;49.602;8.722;2023-07-20T09:53:57;25.30;79.00
78904;DHT22;68291;49.602;8.722;2023-07-20T09:56:30;25.40;80.10
78904;DHT22;68291;49.602;8.722;2023-07-20T09:59:48;25.50;79.60
78904;DHT22;68291;49.602;8.722;2023-07-20T10:02:40;25.50;78.70
78904;DHT22;68291;49.602;8.722;2023-07-20T10:05:28;25.50;78.60
78904;DHT22;68291;49.602;8.722;2023-07-20T10:08:11;25.40;78.70
78904;DHT22;68291;49.602;8.722;2023-07-20T10:11:00;25.40;77.70
78904;DHT22;68291;49.602;8.722;2023-07-20T10:13:38;25.50;76.60
78904;DHT22;68291;49.602;8.722;2023-07-20T10:16:27;25.50;77.90
78904;DHT22;68291;49.602;8.722;2023-07-20T10:19:11;25.60;77.50
78904;DHT22;68291;49.602;8.722;2023-07-20T10:22:15;25.80;76.80
78904;DHT22;68291;49.602;8.722;2023-07-20T10:25:12;25.80;76.70
78904;DHT22;68291;49.602;8.722;2023-07-20T10:27:45;25.90;77.20
78904;DHT22;68291;49.602;8.722;2023-07-20T10:30:20;25.90;76.00
78904;DHT22;68291;49.602;8.722;2023-07-20T10:33:18;25.90;75.90
78904;DHT22;68291;49.602;8.722;2023-07-20T10:36:03;26.00;75.50
78904;DHT22;68291;49.602;8.722;2023-07-20T10:38:55;26.00;75.50
78904;DHT22;68291;49.602;8.722;2023-07-20T10:41:50;26.10;75.30
78904;DHT22;68291;49.602;8.722;2023-07-20T10:44:38;26.20;75.40
78904;DHT22;68291;49.602;8.722;2023-07-20T10:47:45;26.30;74.50
78904;DHT22;68291;49.602;8.722;2023-07-20T10:51:12;26.30;74.70
78904;DHT22;68291;49.602;8.722;2023-07-20T10:54:35;26.30;74.70
78904;DHT22;68291;49.602;8.722;2023-07-20T10:57:37;26.40;73.60
78904;DHT22;68291;49.602;8.722;2023-07-20T11:00:25;26.50;74.40
78904;DHT22;68291;49.602;8.722;2023-07-20T11:03:03;26.60;73.70
78904;DHT22;68291;49.602;8.722;2023-07-20T11:05:48;26.60;73.10
78904;DHT22;68291;49.602;8.722;2023-07-20T11:08:44;26.70;73.00
78904;DHT22;68291;49.602;8.722;2023-07-20T11:11:37;26.70;72.90
78904;DHT22;68291;49.602;8.722;2023-07-20T11:14:20;26.80;72.60
78904;DHT22;68291;49.602;8.722;2023-07-20T11:16:56;26.90;72.60
78904;DHT22;68291;49.602;8.722;2023-07-20T11:19:56;27.10;72.70
78904;DHT22;68291;49.602;8.722;2023-07-20T11:22:48;27.20;70.60
78904;DHT22;68291;49.602;8.722;2023-07-20T11:28:34;27.20;69.60
78904;DHT22;68291;49.602;8.722;2023-07-20T11:31:17;27.20;68.30
78904;DHT22;68291;49.602;8.722;2023-07-20T11:34:07;27.20;69.10
78904;DHT22;68291;49.602;8.722;2023-07-20T11:36:57;27.20;69.30
78904;DHT22;68291;49.602;8.722;2023-07-20T11:39:44;27.40;69.10
78904;DHT22;68291;49.602;8.722;2023-07-20T11:42:36;27.60;69.70
78904;DHT22;68291;49.602;8.722;2023-07-20T11:45:32;27.80;68.30
78904;DHT22;68291;49.602;8.722;2023-07-20T11:48:08;28.00;68.30
78904;DHT22;68291;49.602;8.722;2023-07-20T11:51:04;28.10;67.50
78904;DHT22;68291;49.602;8.722;2023-07-20T11:53:37;28.00;65.40
78904;DHT22;68291;49.602;8.722;2023-07-20T11:56:33;28.00;66.70
78904;DHT22;68291;49.602;8.722;2023-07-20T11:59:56;28.00;66.70
78904;DHT22;68291;49.602;8.722;2023-07-20T12:02:32;28.00;65.60
78904;DHT22;68291;49.602;8.722;2023-07-20T12:05:19;27.90;66.30
78904;DHT22;68291;49.602;8.722;2023-07-20T12:08:00;27.90;66.70
78904;DHT22;68291;49.602;8.722;2023-07-20T12:10:33;28.00;66.30
78904;DHT22;68291;49.602;8.722;2023-07-20T12:13:37;28.00;65.90
78904;DHT22;68291;49.602;8.722;2023-07-20T12:16:32;28.00;65.30
78904;DHT22;68291;49.602;8.722;2023-07-20T12:19:26;28.10;64.20
78904;DHT22;68291;49.602;8.722;2023-07-20T12:22:28;28.30;65.00
78904;DHT22;68291;49.602;8.722;2023-07-20T12:25:11;28.40;65.00
78904;DHT22;68291;49.602;8.722;2023-07-20T12:27:44;28.60;65.00
78904;DHT22;68291;49.602;8.722;2023-07-20T12:30:34;28.80;63.30
78904;DHT22;68291;49.602;8.722;2023-07-20T12:33:15;29.10;62.30
78904;DHT22;68291;49.602;8.722;2023-07-20T12:36:13;29.20;59.90
78904;DHT22;68291;49.602;8.722;2023-07-20T12:38:44;29.30;59.40
78904;DHT22;68291;49.602;8.722;2023-07-20T12:41:15;29.20;59.70
78904;DHT22;68291;49.602;8.722;2023-07-20T12:44:03;29.10;59.60
78904;DHT22;68291;49.602;8.722;2023-07-20T12:46:49;29.00;60.10
78904;DHT22;68291;49.602;8.722;2023-07-20T12:49:40;28.90;59.20
78904;DHT22;68291;49.602;8.722;2023-07-20T12:52:23;28.90;59.20
78904;DHT22;68291;49.602;8.722;2023-07-20T12:55:08;28.80;59.30
78904;DHT22;68291;49.602;8.722;2023-07-20T12:57:46;28.80;59.30
78904;DHT22;68291;49.602;8.722;2023-07-20T13:00:33;28.90;59.90
78904;DHT22;68291;49.602;8.722;2023-07-20T13:03:19;29.20;59.10
78904;DHT22;68291;49.602;8.722;2023-07-20T13:09:20;29.80;58.30
78904;DHT22;68291;49.602;8.722;2023-07-20T13:12:00;30.20;59.10
78904;DHT22;68291;49.602;8.722;2023-07-20T13:14:44;30.60;59.40
78904;DHT22;68291;49.602;8.722;2023-07-20T13:17:38;31.00;59.20
78904;DHT22;68291;49.602;8.722;2023-07-20T13:20:20;31.60;58.70
78904;DHT22;68291;49.602;8.722;2023-07-20T13:23:07;32.00;58.00
78904;DHT22;68291;49.602;8.722;2023-07-20T13:25:38;32.40;56.70
78904;DHT22;68291;49.602;8.722;2023-07-20T13:28:27;32.60;56.10
78904;DHT22;68291;49.602;8.722;2023-07-20T13:31:16;32.80;54.80
78904;DHT22;68291;49.602;8.722;2023-07-20T13:34:15;33.00;54.70
78904;DHT22;68291;49.602;8.722;2023-07-20T13:37:05;33.00;54.20
78904;DHT22;68291;49.602;8.722;2023-07-20T13:40:08;32.80;52.70
78904;DHT22;68291;49.602;8.722;2023-07-20T13:42:57;32.50;52.50
78904;DHT22;68291;49.602;8.722;2023-07-20T13:45:31;32.10;53.40
78904;DHT22;68291;49.602;8.722;2023-07-20T13:48:24;31.70;52.80
78904;DHT22;68291;49.602;8.722;2023-07-20T13:50:56;31.30;53.20
78904;DHT22;68291;49.602;8.722;2023-07-20T13:53:28;31.00;53.70
78904;DHT22;68291;49.602;8.722;2023-07-20T13:56:14;30.70;53.30
78904;DHT22;68291;49.602;8.722;2023-07-20T13:58:54;30.30;53.20
78904;DHT22;68291;49.602;8.722;2023-07-20T14:01:26;30.00;53.70
78904;DHT22;68291;49.602;8.722;2023-07-20T14:04:10;29.80;54.20
78904;DHT22;68291;49.602;8.722;2023-07-20T14:06:42;29.70;54.10
78904;DHT22;68291;49.602;8.722;2023-07-20T14:09:36;29.80;54.30
78904;DHT22;68291;49.602;8.722;2023-07-20T14:13:04;29.90;54.10
78904;DHT22;68291;49.602;8.722;2023-07-20T14:15:44;29.80;53.90
78904;DHT22;68291;49.602;8.722;2023-07-20T14:18:16;29.60;54.10
78904;DHT22;68291;49.602;8.722;2023-07-20T14:21:00;29.40;54.50
78904;DHT22;68291;49.602;8.722;2023-07-20T14:23:35;29.20;54.50
78904;DHT22;68291;49.602;8.722;2023-07-20T14:26:05;29.00;54.60
78904;DHT22;68291;49.602;8.722;2023-07-20T14:28:50;28.90;54.80
78904;DHT22;68291;49.602;8.722;2023-07-20T14:31:24;28.80;55.10
78904;DHT22;68291;49.602;8.722;2023-07-20T14:34:09;28.80;55.10
78904;DHT22;68291;49.602;8.722;2023-07-20T14:36:58;28.80;55.20
78904;DHT22;68291;49.602;8.722;2023-07-20T14:39:58;28.80;55.20
78904;DHT22;68291;49.602;8.722;2023-07-20T14:42:33;28.80;55.50
78904;DHT22;68291;49.602;8.722;2023-07-20T14:48:40;28.80;55.70
78904;DHT22;68291;49.602;8.722;2023-07-20T14:51:13;29.00;56.20
78904;DHT22;68291;49.602;8.722;2023-07-20T14:53:46;29.20;56.10
78904;DHT22;68291;49.602;8.722;2023-07-20T14:56:27;29.40;55.90
78904;DHT22;68291;49.602;8.722;2023-07-20T14:59:12;29.60;55.40
78904;DHT22;68291;49.602;8.722;2023-07-20T15:01:50;30.00;56.00
78904;DHT22;68291;49.602;8.722;2023-07-20T15:04:25;30.60;55.90
78904;DHT22;68291;49.602;8.722;2023-07-20T15:07:15;31.20;56.20
78904;DHT22;68291;49.602;8.722;2023-07-20T15:10:15;32.10;55.60
78904;DHT22;68291;49.602;8.722;2023-07-20T15:12:58;32.90;53.70
78904;DHT22;68291;49.602;8.722;2023-07-20T15:15:54;33.40;52.60
78904;DHT22;68291;49.602;8.722;2023-07-20T15:18:51;33.40;52.40
78904;DHT22;68291;49.602;8.722;2023-07-20T15:21:42;33.30;52.00
78904;DHT22;68291;49.602;8.722;2023-07-20T15:24:14;33.00;51.70
78904;DHT22;68291;49.602;8.722;2023-07-20T15:26:56;32.70;51.20
78904;DHT22;68291;49.602;8.722;2023-07-20T15:29:35;32.40;51.80
78904;DHT22;68291;49.602;8.722;2023-07-20T15:32:08;32.40;51.90
78904;DHT22;68291;49.602;8.722;2023-07-20T15:35:05;32.30;51.50
78904;DHT22;68291;49.602;8.722;2023-07-20T15:37:55;32.40;51.40
78904;DHT22;68291;49.602;8.722;2023-07-20T15:40:32;32.60;52.30
78904;DHT22;68291;49.602;8.722;2023-07-20T15:43:14;33.10;52.30
78904;DHT22;68291;49.602;8.722;2023-07-20T15:45:49;33.60;52.50
78904;DHT22;68291;49.602;8.722;2023-07-20T15:48:25;34.30;51.60
78904;DHT22;68291;49.602;8.722;2023-07-20T15:51:33;34.80;51.20
78904;DHT22;68291;49.602;8.722;2023-07-20T15:54:19;35.40;50.20
78904;DHT22;68291;49.602;8.722;2023-07-20T15:56:56;35.90;50.10
78904;DHT22;68291;49.602;8.722;2023-07-20T15:59:33;36.30;49.80
78904;DHT22;68291;49.602;8.722;2023-07-20T16:02:20;36.80;49.00
78904;DHT22;68291;49.602;8.722;2023-07-20T16:04:52;37.20;48.60
78904;DHT22;68291;49.602;8.722;2023-07-20T16:08:01;37.60;47.70
78904;DHT22;68291;49.602;8.722;2023-07-20T16:10:36;38.00;45.40
78904;DHT22;68291;49.602;8.722;2023-07-20T16:13:22;38.10;46.00
78904;DHT22;68291;49.602;8.722;2023-07-20T16:16:01;38.20;44.20
78904;DHT22;68291;49.602;8.722;2023-07-20T16:18:48;38.30;44.70
78904;DHT22;68291;49.602;8.722;2023-07-20T16:21:41;38.40;44.40
78904;DHT22;68291;49.602;8.722;2023-07-20T16:24:30;38.60;43.90
78904;DHT22;68291;49.602;8.722;2023-07-20T16:27:04;38.80;42.90
78904;DHT22;68291;49.602;8.722;2023-07-20T16:29:41;38.90;43.30
78904;DHT22;68291;49.602;8.722;2023-07-20T16:32:26;38.90;42.10
78904;DHT22;68291;49.602;8.722;2023-07-20T16:35:15;38.60;41.90
78904;DHT22;68291;49.602;8.722;2023-07-20T16:37:56;38.20;41.20
78904;DHT22;68291;49.602;8.722;2023-07-20T16:41:02;37.90;41.50
78904;DHT22;68291;49.602;8.722;2023-07-20T16:43:59;37.30;40.80
78904;DHT22;68291;49.602;8.722;2023-07-20T16:46:33;36.70;41.40
78904;DHT22;68291;49.602;8.722;2023-07-20T16:49:14;36.10;41.60
78904;DHT22;68291;49.602;8.722;2023-07-20T16:51:46;35.50;42.30
78904;DHT22;68291;49.602;8.722;2023-07-20T16:54:17;35.00;42.70
78904;DHT22;68291;49.602;8.722;2023-07-20T16:56:57;34.50;43.20
78904;DHT22;68291;49.602;8.722;2023-07-20T16:59:43;33.90;46.20
78904;DHT22;68291;49.602;8.722;2023-07-20T17:02:24;33.50;47.10
78904;DHT22;68291;49.602;8.722;2023-07-20T17:05:14;33.00;47.90
78904;DHT22;68291;49.602;8.722;2023-07-20T17:08:02;32.50;48.60
78904;DHT22;68291;49.602;8.722;2023-07-20T17:10:45;32.10;47.50
78904;DHT22;68291;49.602;8.722;2023-07-20T17:13:28;31.90;47.80
78904;DHT22;68291;49.602;8.722;2023-07-20T17:16:07;31.80;50.20
78904;DHT22;68291;49.602;8.722;2023-07-20T17:18:38;31.90;50.30
78904;DHT22;68291;49.602;8.722;2023-07-20T17:21:24;31.90;49.60
78904;DHT22;68291;49.602;8.722;2023-07-20T17:23:58;31.80;50.60
78904;DHT22;68291;49.602;8.722;2023-07-20T17:26:44;31.80;50.90
78904;DHT22;68291;49.602;8.722;2023-07-20T17:29:57;31.80;50.90
78904;DHT22;68291;49.602;8.722;2023-07-20T17:32:36;31.80;50.70
78904;DHT22;68291;49.602;8.722;2023-07-20T17:35:32;31.60;50.40